Coldwater, MI

6:19 AM EDT on March 27, 2015 (GMT -0400)
Branch County Memorial | | Change Station
CLOSE
Current Station
Airport
Location: Coldwater,
Elevation: 958 ft
Nearby Weather Stations

Elev 958 ft 41.93 °N, 85.05 °W | Updated 4 minutes ago

Partly Cloudy
Partly Cloudy
22 °F
Feels Like 16 °F
N
5
Wind Variable Wind from North

Today
High -- | Low -- °F
--% Chance of Precip.
Yesterday
High -- | Low -- °F
Precip. -- in
7:31 AM 7:59 PM
Waxing Crescent, 51% visible
Pressure 30.01 in
Visibility 10.0 miles
Clouds Clear
Windchill 16 °F
Dew Point 14 °F
Humidity 74%
Rainfall 0.00 in
Snow Depth Not available.
UV 0 out of 12
Pollen 3.00 out of 12
Air Quality Not available.
Flu Activity Not available.
METAR KOEB 271015Z AUTO 35004KT 10SM CLR M06/M10 A3001 RMK AO2 T10571097

More Conditions Fewer Conditions

Pressure 30.01 in
Visibility 10.0 miles
Clouds Clear
Windchill 16 °F
Dew Point 14 °F
Humidity 74%
Rainfall 0.00 in
Snow Depth Not available.
UV 0 out of 12
Pollen 3.00 out of 12
Air Quality Not available.
Flu Activity Not available.
METAR KOEB 271015Z AUTO 35004KT 10SM CLR M06/M10 A3001 RMK AO2 T10571097

More Conditions Fewer Conditions

10-Day Weather Forecast

Almanac

Astronomy

Mar. 27, 2015 Rise Set
Actual Time
Civil Twilight
Nautical Twilight
Astronomical Twilight
Moon
Length of Visible Light
Length of Day
Tomorrow will be .
, % of the Moon is Illuminated

Today's Extremes

State Highs State Lows

Community

WunderPhotos

Upload Photos

1,808,705 photos uploaded!

WunderBlogs® & News

Nearby

Air Quality

  Air Quality AQ Index Pollutant
Not available.

Snow Depth

Station Depth Elevation

Earthquake Activity

City Distance Mag. Time & Date
Minimum magnitude displayed is 2.5.

Coastal Water Temperatures

Place Temperature

Stations

Nearby Weather Stations

Station Location Temp. Windchill Dew Point Humidity Wind Precip. Elev Updated Type